createdAt,value
2018-11-13T00:02:28.114Z,10.83
2018-11-13T00:04:56.157Z,11.47
2018-11-13T00:07:24.157Z,10.67
2018-11-13T00:10:09.867Z,11.10
2018-11-13T00:12:39.116Z,10.80
2018-11-13T00:15:07.239Z,10.37
2018-11-13T00:17:35.484Z,12.77
2018-11-13T00:20:03.904Z,10.13
2018-11-13T00:22:32.733Z,9.90
2018-11-13T00:25:00.666Z,12.00
2018-11-13T00:27:28.707Z,11.53
2018-11-13T00:29:56.698Z,12.90
2018-11-13T00:32:24.879Z,18.60
2018-11-13T00:34:53.052Z,15.17
2018-11-13T00:37:21.182Z,11.97
2018-11-13T00:39:49.215Z,11.70
2018-11-13T00:42:17.219Z,10.87
2018-11-13T00:44:45.326Z,10.67
2018-11-13T00:47:13.264Z,10.30
2018-11-13T00:49:41.205Z,10.60
2018-11-13T00:52:09.266Z,9.90
2018-11-13T00:54:37.306Z,9.37
2018-11-13T00:57:05.283Z,10.67
2018-11-13T00:59:33.320Z,10.00
2018-11-13T01:02:01.551Z,11.30
2018-11-13T01:04:29.545Z,11.60
2018-11-13T01:06:57.784Z,12.67
2018-11-13T01:09:25.822Z,11.13
2018-11-13T01:11:53.872Z,11.80
2018-11-13T01:14:21.820Z,12.07
2018-11-13T01:16:49.780Z,11.17
2018-11-13T01:19:17.696Z,11.70
2018-11-13T01:21:45.647Z,12.57
2018-11-13T01:24:13.559Z,10.63
2018-11-13T01:26:41.518Z,10.80
2018-11-13T01:29:09.484Z,11.57
2018-11-13T01:31:37.442Z,11.97
2018-11-13T01:34:05.491Z,11.67
2018-11-13T01:36:33.456Z,12.40
2018-11-13T01:39:01.446Z,12.23
2018-11-13T01:41:29.448Z,12.57
2018-11-13T01:43:57.449Z,12.60
2018-11-13T01:46:25.490Z,12.17
2018-11-13T01:48:53.688Z,11.83
2018-11-13T01:51:21.500Z,12.17
2018-11-13T01:53:49.417Z,11.50
2018-11-13T01:56:17.352Z,12.47
2018-11-13T01:58:45.331Z,12.87
2018-11-13T02:01:13.298Z,12.07
2018-11-13T02:03:41.271Z,11.38
2018-11-13T02:06:09.272Z,11.83
2018-11-13T02:08:37.281Z,12.70
2018-11-13T02:11:05.300Z,11.40
2018-11-13T02:13:33.211Z,12.23
2018-11-13T02:16:01.124Z,11.63
2018-11-13T02:18:29.063Z,12.50
2018-11-13T02:20:56.982Z,12.20
2018-11-13T02:23:24.942Z,12.30
2018-11-13T02:25:52.865Z,11.70
2018-11-13T02:28:20.818Z,10.93
2018-11-13T02:30:48.711Z,11.88
2018-11-13T02:33:16.651Z,11.40
2018-11-13T02:35:44.760Z,11.40
2018-11-13T02:38:12.618Z,10.80
2018-11-13T02:40:40.646Z,11.60
2018-11-13T02:43:08.639Z,10.77
2018-11-13T02:45:36.548Z,10.80
2018-11-13T02:48:04.726Z,11.90
2018-11-13T02:50:32.670Z,12.47
2018-11-13T02:53:00.625Z,12.23
2018-11-13T02:55:28.586Z,11.40
2018-11-13T02:57:56.506Z,11.40
2018-11-13T03:00:24.452Z,11.70
2018-11-13T03:02:52.407Z,11.30
2018-11-13T03:05:21.166Z,11.73
2018-11-13T03:07:49.195Z,11.73
2018-11-13T03:10:18.250Z,12.53
2018-11-13T03:12:46.171Z,12.10
2018-11-13T03:15:15.203Z,12.78
2018-11-13T03:17:43.209Z,11.87
2018-11-13T03:20:12.413Z,11.57
2018-11-13T03:22:40.876Z,12.77
2018-11-13T03:25:09.980Z,10.70
2018-11-13T03:27:38.472Z,11.25
2018-11-13T03:30:16.875Z,10.20
2018-11-13T03:32:45.159Z,12.10
2018-11-13T03:35:13.120Z,11.67
2018-11-13T03:37:41.175Z,11.33
2018-11-13T03:40:09.891Z,11.43
2018-11-13T03:42:38.052Z,10.40
2018-11-13T03:45:06.572Z,11.40
2018-11-13T03:47:34.568Z,11.15
2018-11-13T03:50:02.637Z,11.90
2018-11-13T03:52:30.596Z,11.50
2018-11-13T03:54:58.581Z,11.53
2018-11-13T03:57:26.532Z,10.93
2018-11-13T03:59:54.507Z,10.50
2018-11-13T04:02:22.470Z,10.70
2018-11-13T04:04:50.426Z,11.70
2018-11-13T04:07:18.346Z,11.83
2018-11-13T04:09:46.359Z,12.80
2018-11-13T04:12:14.328Z,11.20
2018-11-13T04:14:42.317Z,12.37
2018-11-13T04:17:10.276Z,12.83
2018-11-13T04:19:38.209Z,14.93
2018-11-13T04:22:06.119Z,14.00
2018-11-13T04:24:34.230Z,13.70
2018-11-13T04:27:02.409Z,15.40
2018-11-13T04:29:30.763Z,13.33
2018-11-13T04:31:58.719Z,12.43
2018-11-13T04:34:26.692Z,12.83
2018-11-13T04:36:54.615Z,15.70
2018-11-13T04:39:22.598Z,15.40
2018-11-13T04:41:50.595Z,14.13
2018-11-13T04:44:18.575Z,14.70
2018-11-13T04:46:46.567Z,14.80
2018-11-13T04:49:14.491Z,15.83
2018-11-13T04:51:42.584Z,16.13
2018-11-13T04:54:10.427Z,16.63
2018-11-13T04:56:38.385Z,12.37
2018-11-13T04:59:06.400Z,13.07
2018-11-13T05:01:34.389Z,14.07
2018-11-13T05:04:02.393Z,12.00
2018-11-13T05:06:30.319Z,13.20
2018-11-13T05:08:58.263Z,13.17
2018-11-13T05:11:26.218Z,11.23
2018-11-13T05:13:54.176Z,11.60
2018-11-13T05:16:22.099Z,12.63
2018-11-13T05:18:50.039Z,13.57
2018-11-13T05:21:17.947Z,12.70
2018-11-13T05:23:45.881Z,14.20
2018-11-13T05:26:13.844Z,13.43
2018-11-13T05:28:41.773Z,12.40
2018-11-13T05:31:09.698Z,12.63
2018-11-13T05:33:37.652Z,12.03
2018-11-13T05:36:05.708Z,12.25
2018-11-13T05:38:33.657Z,12.50
2018-11-13T05:41:01.673Z,13.40
2018-11-13T05:43:29.695Z,12.28
2018-11-13T05:45:57.772Z,12.50
2018-11-13T05:48:25.717Z,13.70
2018-11-13T05:50:53.698Z,12.07
2018-11-13T05:53:21.660Z,12.30
2018-11-13T05:55:49.629Z,12.43
2018-11-13T05:58:17.545Z,12.60
2018-11-13T06:00:45.520Z,12.80
2018-11-13T06:03:13.476Z,14.00
2018-11-13T06:05:41.452Z,12.47
2018-11-13T06:08:10.268Z,12.60
2018-11-13T06:10:38.249Z,12.70
2018-11-13T06:13:06.236Z,12.37
2018-11-13T06:15:34.143Z,13.83
2018-11-13T06:18:02.099Z,14.00
2018-11-13T06:20:30.050Z,13.23
2018-11-13T06:22:58.063Z,12.90
2018-11-13T06:25:26.005Z,11.73
2018-11-13T06:27:53.923Z,12.13
2018-11-13T06:30:24.843Z,12.73
2018-11-13T06:32:53.049Z,11.87
2018-11-13T06:35:21.089Z,12.13
2018-11-13T06:37:49.079Z,10.50
2018-11-13T06:40:17.058Z,9.70
2018-11-13T06:42:45.055Z,7.70
2018-11-13T06:45:15.671Z,7.40
2018-11-13T06:47:44.409Z,6.63
2018-11-13T06:50:12.482Z,6.93
2018-11-13T06:52:40.488Z,7.87
2018-11-13T06:55:12.900Z,7.50
2018-11-13T06:57:40.844Z,7.90
2018-11-13T07:00:09.164Z,7.67
2018-11-13T07:02:37.710Z,8.10
2018-11-13T07:05:07.679Z,8.20
2018-11-13T07:07:35.738Z,9.20
2018-11-13T07:10:03.989Z,7.43
2018-11-13T07:12:31.938Z,7.20
2018-11-13T07:14:59.910Z,7.17
2018-11-13T07:17:27.928Z,7.20
2018-11-13T07:19:55.849Z,7.20
2018-11-13T07:22:23.818Z,7.57
2018-11-13T07:24:51.770Z,8.17
2018-11-13T07:27:19.760Z,7.60
2018-11-13T07:29:47.708Z,9.20
2018-11-13T07:32:15.675Z,8.30
2018-11-13T07:34:43.674Z,8.67
2018-11-13T07:37:11.990Z,8.30
2018-11-13T07:39:39.952Z,9.00
2018-11-13T07:42:07.910Z,8.33
2018-11-13T07:44:35.926Z,8.90
2018-11-13T07:47:04.111Z,8.57
2018-11-13T07:49:32.066Z,10.10
2018-11-13T07:52:00.368Z,10.17
2018-11-13T07:54:28.390Z,11.13
2018-11-13T07:56:56.344Z,10.43
2018-11-13T07:59:24.274Z,9.67
2018-11-13T08:01:52.202Z,10.33
2018-11-13T08:04:20.217Z,9.60
2018-11-13T08:06:48.281Z,9.57
2018-11-13T08:09:16.225Z,9.57
2018-11-13T08:11:44.250Z,10.77
2018-11-13T08:14:12.197Z,12.00
2018-11-13T08:16:40.232Z,11.60
2018-11-13T08:19:08.179Z,13.07
2018-11-13T08:21:36.108Z,11.50
2018-11-13T08:24:04.107Z,12.90
2018-11-13T08:26:32.084Z,14.17
2018-11-13T08:29:00.172Z,11.97
2018-11-13T08:31:28.107Z,12.23
2018-11-13T08:33:56.023Z,12.93
2018-11-13T08:36:23.978Z,13.47
2018-11-13T08:38:51.925Z,14.27
2018-11-13T08:41:19.925Z,13.23
2018-11-13T08:43:47.928Z,11.90
2018-11-13T08:46:15.839Z,11.30
2018-11-13T08:48:43.905Z,11.80
2018-11-13T08:51:11.928Z,11.73
2018-11-13T08:53:39.948Z,11.23
2018-11-13T08:56:07.919Z,10.13
2018-11-13T08:58:35.969Z,9.00
2018-11-13T09:01:03.848Z,9.20
2018-11-13T09:03:31.816Z,8.77
2018-11-13T09:05:59.786Z,9.27
2018-11-13T09:08:27.736Z,8.60
2018-11-13T09:10:55.890Z,9.00
2018-11-13T09:13:23.892Z,8.70
2018-11-13T09:15:51.846Z,7.80
2018-11-13T09:18:19.809Z,7.60
2018-11-13T09:20:47.820Z,7.83
2018-11-13T09:23:15.784Z,8.77
2018-11-13T09:25:43.777Z,9.63
2018-11-13T09:28:11.748Z,8.93
2018-11-13T09:30:39.804Z,9.50
2018-11-13T09:33:07.741Z,10.00
2018-11-13T09:35:35.597Z,8.63
2018-11-13T09:38:03.558Z,8.90
2018-11-13T09:40:31.524Z,7.93
2018-11-13T09:42:59.515Z,8.00
2018-11-13T09:45:27.476Z,8.70
2018-11-13T09:47:55.531Z,8.47
2018-11-13T09:50:23.469Z,8.47
2018-11-13T09:52:52.162Z,8.87
2018-11-13T09:55:21.383Z,9.00
2018-11-13T09:57:49.445Z,10.40
2018-11-13T10:00:19.168Z,10.63
2018-11-13T10:02:48.769Z,10.07
2018-11-13T10:05:17.488Z,10.20
2018-11-13T10:07:45.855Z,10.20
2018-11-13T10:10:13.786Z,10.13
2018-11-13T10:12:41.724Z,9.97
2018-11-13T10:15:11.098Z,11.33
2018-11-13T10:17:39.174Z,11.00
2018-11-13T10:20:07.735Z,11.30
2018-11-13T10:22:35.708Z,11.53
2018-11-13T10:25:03.650Z,12.37
2018-11-13T10:27:31.609Z,12.97
2018-11-13T10:29:59.621Z,11.43
2018-11-13T10:32:27.559Z,12.07
2018-11-13T10:34:55.492Z,12.07
2018-11-13T10:37:23.424Z,12.60
2018-11-13T10:39:51.375Z,12.90
2018-11-13T10:42:19.320Z,13.23
2018-11-13T10:44:47.309Z,11.73
2018-11-13T10:47:15.289Z,13.40
2018-11-13T10:49:43.256Z,12.37
2018-11-13T10:52:11.230Z,11.90
2018-11-13T10:54:39.407Z,12.93
2018-11-13T10:57:07.315Z,11.40
2018-11-13T10:59:42.128Z,12.20
2018-11-13T11:02:15.645Z,12.50
2018-11-13T11:04:47.276Z,11.33
2018-11-13T11:07:15.283Z,11.50
2018-11-13T11:09:43.301Z,12.07
2018-11-13T11:12:11.380Z,12.37
2018-11-13T11:14:39.350Z,10.97
2018-11-13T11:17:07.567Z,12.27
2018-11-13T11:19:35.596Z,12.33
2018-11-13T11:22:03.531Z,12.27
2018-11-13T11:24:31.519Z,13.00
2018-11-13T11:26:59.473Z,11.60
2018-11-13T11:29:27.485Z,11.53
2018-11-13T11:31:55.431Z,12.30
2018-11-13T11:34:23.401Z,11.63
2018-11-13T11:36:51.367Z,11.23
2018-11-13T11:39:19.380Z,11.37
2018-11-13T11:41:47.282Z,10.20
2018-11-13T11:44:15.240Z,11.50
2018-11-13T11:46:43.218Z,11.10
2018-11-13T11:49:11.184Z,11.20
2018-11-13T11:51:39.135Z,11.60
2018-11-13T11:54:07.128Z,10.10
2018-11-13T11:56:35.105Z,11.90
2018-11-13T11:59:03.033Z,10.53
2018-11-13T12:01:30.975Z,12.10
2018-11-13T12:03:58.935Z,10.73
2018-11-13T12:06:26.937Z,10.53
2018-11-13T12:08:55.699Z,11.13
2018-11-13T12:11:23.648Z,10.10
2018-11-13T12:13:51.592Z,10.90
2018-11-13T12:16:19.510Z,11.07
2018-11-13T12:18:47.518Z,11.17
2018-11-13T12:21:15.488Z,10.70
2018-11-13T12:23:43.443Z,11.20
2018-11-13T12:26:11.456Z,10.67
2018-11-13T12:28:39.438Z,11.20
2018-11-13T12:31:07.374Z,11.60
2018-11-13T12:33:35.360Z,10.77
2018-11-13T12:36:03.368Z,9.93
2018-11-13T12:38:31.341Z,10.10
2018-11-13T12:40:59.390Z,10.40
2018-11-13T12:43:27.303Z,10.33
2018-11-13T12:45:55.376Z,11.07
2018-11-13T12:48:23.432Z,11.40
2018-11-13T12:50:57.595Z,11.13
2018-11-13T12:53:25.623Z,11.00
2018-11-13T12:55:53.687Z,10.40
2018-11-13T12:58:21.600Z,11.10
2018-11-13T13:00:49.519Z,10.23
2018-11-13T13:03:17.525Z,9.73
2018-11-13T13:05:45.495Z,10.40
2018-11-13T13:08:13.428Z,9.60
2018-11-13T13:10:41.427Z,11.33
2018-11-13T13:13:09.403Z,10.10
2018-11-13T13:15:37.349Z,9.50
2018-11-13T13:18:05.321Z,10.40
2018-11-13T13:20:33.259Z,10.00
2018-11-13T13:23:01.230Z,10.50
2018-11-13T13:25:29.265Z,10.23
2018-11-13T13:27:57.240Z,9.57
2018-11-13T13:30:25.830Z,10.83
2018-11-13T13:32:53.840Z,10.83
2018-11-13T13:35:57.774Z,9.77
2018-11-13T13:38:25.827Z,10.50
2018-11-13T13:40:54.927Z,9.83
2018-11-13T13:43:23.654Z,10.43
2018-11-13T13:45:51.740Z,10.37
2018-11-13T13:48:19.986Z,10.20
2018-11-13T13:50:47.966Z,9.93
2018-11-13T13:53:16.958Z,10.90
2018-11-13T13:55:45.329Z,10.87
2018-11-13T13:58:13.923Z,10.40
2018-11-13T14:00:41.984Z,11.00
2018-11-13T14:03:10.552Z,10.93
2018-11-13T14:05:38.786Z,10.17
2018-11-13T14:08:07.265Z,10.60
2018-11-13T14:10:35.253Z,10.63
2018-11-13T14:13:03.271Z,10.97
2018-11-13T14:15:31.291Z,10.17
2018-11-13T14:17:59.456Z,14.13
2018-11-13T14:20:27.417Z,11.20
2018-11-13T14:22:55.416Z,10.80
2018-11-13T14:25:23.351Z,9.40
2018-11-13T14:27:51.377Z,10.97
2018-11-13T14:30:22.184Z,9.93
2018-11-13T14:32:50.560Z,12.80
2018-11-13T14:35:18.779Z,12.27
2018-11-13T14:37:47.115Z,10.77
2018-11-13T14:40:25.557Z,10.40
2018-11-13T14:42:53.534Z,10.63
2018-11-13T14:45:23.287Z,9.90
2018-11-13T14:47:51.819Z,10.30
2018-11-13T14:50:21.319Z,9.90
2018-11-13T14:52:49.808Z,9.60
2018-11-13T14:55:19.855Z,11.40
2018-11-13T14:57:48.201Z,11.47
2018-11-13T15:00:18.042Z,11.73
2018-11-13T15:02:46.339Z,11.50
2018-11-13T15:05:15.490Z,11.47
2018-11-13T15:07:44.684Z,12.60
2018-11-13T15:10:25.212Z,12.97
2018-11-13T15:12:53.212Z,12.87
2018-11-13T15:15:21.253Z,13.30
2018-11-13T15:17:49.260Z,13.30
2018-11-13T15:20:17.205Z,12.77
2018-11-13T15:22:45.171Z,12.87
2018-11-13T15:25:15.001Z,13.37
2018-11-13T15:27:43.760Z,13.50
2018-11-13T15:30:13.715Z,12.97
2018-11-13T15:32:41.904Z,14.23
2018-11-13T15:35:11.283Z,13.83
2018-11-13T15:37:39.651Z,12.57
2018-11-13T15:40:08.970Z,13.13
2018-11-13T15:42:38.582Z,13.60
2018-11-13T15:45:06.093Z,14.20
2018-11-13T15:47:34.388Z,15.60
2018-11-13T15:50:02.425Z,14.10
2018-11-13T15:52:30.402Z,13.93
2018-11-13T15:54:58.551Z,15.40
2018-11-13T15:57:26.522Z,14.83
2018-11-13T15:59:54.534Z,13.70
2018-11-13T16:02:22.504Z,15.03
2018-11-13T16:04:50.479Z,15.40
2018-11-13T16:07:18.458Z,15.40
2018-11-13T16:09:46.496Z,16.40
2018-11-13T16:12:14.747Z,15.10
2018-11-13T16:14:42.746Z,14.27
2018-11-13T16:17:10.754Z,16.27
2018-11-13T16:19:38.738Z,15.47
2018-11-13T16:22:06.816Z,14.57
2018-11-13T16:24:34.839Z,14.23
2018-11-13T16:27:02.828Z,15.27
2018-11-13T16:29:30.775Z,15.40
2018-11-13T16:31:58.805Z,17.37
2018-11-13T16:34:26.903Z,15.57
2018-11-13T16:36:55.133Z,15.83
2018-11-13T16:39:23.117Z,17.70
2018-11-13T16:41:51.060Z,17.40
2018-11-13T16:44:19.049Z,17.97
2018-11-13T16:46:47.052Z,16.93
2018-11-13T16:49:21.981Z,17.40
2018-11-13T16:51:49.950Z,19.27
2018-11-13T16:54:17.912Z,18.73
2018-11-13T16:56:48.463Z,18.43
2018-11-13T16:59:16.507Z,17.40
2018-11-13T17:01:44.526Z,19.03
2018-11-13T17:04:12.514Z,19.03
2018-11-13T17:06:40.675Z,18.40
2018-11-13T17:09:09.394Z,18.70
2018-11-13T17:11:37.451Z,17.17
2018-11-13T17:14:05.412Z,17.33
2018-11-13T17:16:33.405Z,18.80
2018-11-13T17:19:01.390Z,17.53
2018-11-13T17:21:29.348Z,18.53
2018-11-13T17:23:57.380Z,19.30
2018-11-13T17:26:25.349Z,19.17
2018-11-13T17:28:53.295Z,17.40
2018-11-13T17:31:21.268Z,17.47
2018-11-13T17:33:49.247Z,21.50
2018-11-13T17:36:17.195Z,20.00
2018-11-13T17:38:45.177Z,20.77
2018-11-13T17:41:13.135Z,19.93
2018-11-13T17:43:41.143Z,20.00
2018-11-13T17:46:09.099Z,20.57
2018-11-13T17:48:37.073Z,21.93
2018-11-13T17:51:05.240Z,21.03
2018-11-13T17:53:33.443Z,21.57
2018-11-13T17:56:01.311Z,23.23
2018-11-13T17:58:29.253Z,25.50
2018-11-13T18:00:57.364Z,24.40
2018-11-13T18:03:25.343Z,24.70
2018-11-13T18:05:53.311Z,24.53
2018-11-13T18:08:21.267Z,24.70
2018-11-13T18:10:49.253Z,26.70
2018-11-13T18:13:17.280Z,24.00
2018-11-13T18:15:45.327Z,24.00
2018-11-13T18:18:13.299Z,22.23
2018-11-13T18:20:41.594Z,23.07
2018-11-13T18:23:09.836Z,23.03
2018-11-13T18:25:37.886Z,22.57
2018-11-13T18:28:06.027Z,22.33
2018-11-13T18:30:35.545Z,21.47
2018-11-13T18:33:04.709Z,22.90
2018-11-13T18:35:35.307Z,21.20
2018-11-13T18:38:05.113Z,23.20
2018-11-13T18:40:33.168Z,22.90
2018-11-13T18:43:01.513Z,21.47
2018-11-13T18:45:32.438Z,23.97
2018-11-13T18:48:00.475Z,21.17
2018-11-13T18:50:30.576Z,21.90
2018-11-13T18:52:58.835Z,23.23
2018-11-13T18:55:26.882Z,21.93
2018-11-13T18:57:54.894Z,22.23
2018-11-13T19:00:27.867Z,23.30
2018-11-13T19:02:56.440Z,23.43
2018-11-13T19:05:25.068Z,24.27
2018-11-13T19:07:53.147Z,25.63
2018-11-13T19:10:28.335Z,26.80
2018-11-13T19:12:57.586Z,26.80
2018-11-13T19:15:25.560Z,26.57
2018-11-13T19:17:54.042Z,26.17
2018-11-13T19:20:23.359Z,24.93
2018-11-13T19:22:51.355Z,26.00
2018-11-13T19:25:21.858Z,25.50
2018-11-13T19:27:50.354Z,26.00
2018-11-13T19:30:19.382Z,26.90
2018-11-13T19:32:47.231Z,26.87
2018-11-13T19:35:15.605Z,24.87
2018-11-13T19:37:43.637Z,27.40
2018-11-13T19:40:14.515Z,28.50
2018-11-13T19:42:42.979Z,27.07
2018-11-13T19:45:11.095Z,26.67
2018-11-13T19:47:39.330Z,28.10
2018-11-13T19:50:08.536Z,27.60
2018-11-13T19:52:36.508Z,27.37
2018-11-13T19:55:04.887Z,29.60
2018-11-13T19:57:32.942Z,29.20
2018-11-13T20:00:01.028Z,30.87
2018-11-13T20:02:29.228Z,30.57
2018-11-13T20:04:57.265Z,30.00
2018-11-13T20:07:25.306Z,30.80
2018-11-13T20:09:53.365Z,28.70
2018-11-13T20:12:21.365Z,30.20
2018-11-13T20:14:49.374Z,32.00
2018-11-13T20:17:17.395Z,30.47
2018-11-13T20:19:49.964Z,30.43
2018-11-13T20:22:27.961Z,30.87
2018-11-13T20:24:55.968Z,30.43
2018-11-13T20:27:23.959Z,32.13
2018-11-13T20:29:51.968Z,31.17
2018-11-13T20:32:19.973Z,33.17
2018-11-13T20:34:47.969Z,34.77
2018-11-13T20:37:15.968Z,30.63
2018-11-13T20:39:43.999Z,38.20
2018-11-13T20:42:11.983Z,36.30
2018-11-13T20:44:40.088Z,36.07
2018-11-13T20:47:08.076Z,33.40
2018-11-13T20:49:36.108Z,34.00
2018-11-13T20:52:04.107Z,39.20
2018-11-13T20:54:32.125Z,36.70
2018-11-13T20:57:00.168Z,34.10
2018-11-13T20:59:28.163Z,37.70
2018-11-13T21:01:56.247Z,31.37
2018-11-13T21:04:24.235Z,33.13
2018-11-13T21:06:52.295Z,32.97
2018-11-13T21:09:20.254Z,34.17
2018-11-13T21:11:48.287Z,34.07
2018-11-13T21:14:16.342Z,36.97
2018-11-13T21:16:44.534Z,33.07
2018-11-13T21:19:12.502Z,38.37
2018-11-13T21:21:40.463Z,34.57
2018-11-13T21:24:08.977Z,37.37
2018-11-13T21:26:48.981Z,36.10
2018-11-13T21:29:16.979Z,31.13
2018-11-13T21:31:45.095Z,30.77
2018-11-13T21:34:13.129Z,31.33
2018-11-13T21:36:41.228Z,33.17
2018-11-13T21:39:10.112Z,33.80
2018-11-13T21:41:38.355Z,40.70
2018-11-13T21:44:06.630Z,41.53
2018-11-13T21:46:34.637Z,32.00
2018-11-13T21:49:04.059Z,32.33
2018-11-13T21:51:36.964Z,30.97
2018-11-13T21:54:08.915Z,38.60
2018-11-13T21:56:36.923Z,34.90
2018-11-13T21:59:08.307Z,31.07
2018-11-13T22:01:36.392Z,38.90
2018-11-13T22:04:04.578Z,34.43
2018-11-13T22:06:32.610Z,34.47
2018-11-13T22:09:00.634Z,37.40
2018-11-13T22:11:28.625Z,39.57
2018-11-13T22:13:56.638Z,31.60
2018-11-13T22:16:24.690Z,32.83
2018-11-13T22:18:52.856Z,33.60
2018-11-13T22:21:30.881Z,43.40
2018-11-13T22:23:59.124Z,37.67
2018-11-13T22:26:27.192Z,30.80
2018-11-13T22:28:55.807Z,31.87
2018-11-13T22:31:23.506Z,42.33
2018-11-13T22:33:51.541Z,30.47
2018-11-13T22:36:19.576Z,34.73
2018-11-13T22:38:47.719Z,32.43
2018-11-13T22:41:15.699Z,35.17
2018-11-13T22:43:43.685Z,28.87
2018-11-13T22:46:13.023Z,32.43
2018-11-13T22:48:48.099Z,27.90
2018-11-13T22:51:16.174Z,28.57
2018-11-13T22:53:44.213Z,27.33
2018-11-13T22:56:12.303Z,30.30
2018-11-13T22:58:40.502Z,28.13
2018-11-13T23:01:08.483Z,29.13
2018-11-13T23:03:36.722Z,27.57
2018-11-13T23:06:04.747Z,30.60
2018-11-13T23:08:32.815Z,29.30
2018-11-13T23:11:06.451Z,31.83
2018-11-13T23:13:34.405Z,27.40
2018-11-13T23:16:03.059Z,28.27
2018-11-13T23:18:31.092Z,29.60
2018-11-13T23:20:59.267Z,26.83
2018-11-13T23:23:27.231Z,27.87
2018-11-13T23:25:55.174Z,27.57
2018-11-13T23:28:23.427Z,31.37
2018-11-13T23:30:52.070Z,27.87
2018-11-13T23:33:19.677Z,31.63
2018-11-13T23:35:47.641Z,35.97
2018-11-13T23:38:15.648Z,27.80
2018-11-13T23:40:43.779Z,27.10
2018-11-13T23:43:11.800Z,30.23
2018-11-13T23:45:39.751Z,29.40
2018-11-13T23:48:07.730Z,29.40
2018-11-13T23:50:35.691Z,26.20
2018-11-13T23:53:08.209Z,43.90
2018-11-13T23:55:36.182Z,26.03
2018-11-13T23:58:08.643Z,37.53
